sensor_id;sensor_type;location;lat;lon;timestamp;pressure;altitude;pressure_sealevel;temperature
69420;BMP280;56612;52.030;113.524;2022-07-01T00:02:24;92605.09;;;23.78
69420;BMP280;56612;52.030;113.524;2022-07-01T00:05:28;92606.41;;;23.94
69420;BMP280;56612;52.030;113.524;2022-07-01T00:08:33;92598.34;;;24.19
69420;BMP280;56612;52.030;113.524;2022-07-01T00:11:37;92602.22;;;24.37
69420;BMP280;56612;52.030;113.524;2022-07-01T00:14:41;92603.34;;;24.42
69420;BMP280;56612;52.030;113.524;2022-07-01T00:17:44;92606.78;;;24.55
69420;BMP280;56612;52.030;113.524;2022-07-01T00:20:48;92591.94;;;24.65
69420;BMP280;56612;52.030;113.524;2022-07-01T00:23:52;92602.22;;;24.89
69420;BMP280;56612;52.030;113.524;2022-07-01T00:26:55;92606.72;;;25.08
69420;BMP280;56612;52.030;113.524;2022-07-01T00:29:58;92607.16;;;25.12
69420;BMP280;56612;52.030;113.524;2022-07-01T00:33:02;92603.09;;;25.11
69420;BMP280;56612;52.030;113.524;2022-07-01T00:36:05;92609.69;;;25.29
69420;BMP280;56612;52.030;113.524;2022-07-01T00:39:09;92612.84;;;25.46
69420;BMP280;56612;52.030;113.524;2022-07-01T00:42:12;92610.72;;;25.72
69420;BMP280;56612;52.030;113.524;2022-07-01T00:45:15;92603.47;;;25.79
69420;BMP280;56612;52.030;113.524;2022-07-01T00:48:20;92599.50;;;25.89
69420;BMP280;56612;52.030;113.524;2022-07-01T00:51:27;92587.25;;;25.88
69420;BMP280;56612;52.030;113.524;2022-07-01T00:54:33;92590.22;;;26.07
69420;BMP280;56612;52.030;113.524;2022-07-01T00:57:39;92589.22;;;26.36
69420;BMP280;56612;52.030;113.524;2022-07-01T01:00:43;92592.91;;;26.66
69420;BMP280;56612;52.030;113.524;2022-07-01T01:03:46;92596.09;;;26.81
69420;BMP280;56612;52.030;113.524;2022-07-01T01:06:49;92599.59;;;27.14
69420;BMP280;56612;52.030;113.524;2022-07-01T01:09:54;92594.16;;;27.45
69420;BMP280;56612;52.030;113.524;2022-07-01T01:12:57;92601.06;;;27.66
69420;BMP280;56612;52.030;113.524;2022-07-01T01:16:01;92597.38;;;27.90
69420;BMP280;56612;52.030;113.524;2022-07-01T01:19:05;92599.47;;;28.01
69420;BMP280;56612;52.030;113.524;2022-07-01T01:22:09;92598.56;;;27.93
69420;BMP280;56612;52.030;113.524;2022-07-01T01:25:13;92606.03;;;27.84
69420;BMP280;56612;52.030;113.524;2022-07-01T01:28:17;92601.47;;;27.81
69420;BMP280;56612;52.030;113.524;2022-07-01T01:31:29;92597.41;;;27.80
69420;BMP280;56612;52.030;113.524;2022-07-01T01:34:34;92591.66;;;27.73
69420;BMP280;56612;52.030;113.524;2022-07-01T01:37:39;92592.03;;;27.88
69420;BMP280;56612;52.030;113.524;2022-07-01T01:40:43;92595.91;;;28.23
69420;BMP280;56612;52.030;113.524;2022-07-01T01:43:46;92582.63;;;28.47
69420;BMP280;56612;52.030;113.524;2022-07-01T01:46:50;92587.66;;;28.64
69420;BMP280;56612;52.030;113.524;2022-07-01T01:49:53;92579.09;;;28.78
69420;BMP280;56612;52.030;113.524;2022-07-01T01:52:57;92584.03;;;29.06
69420;BMP280;56612;52.030;113.524;2022-07-01T01:56:01;92582.16;;;29.32
69420;BMP280;56612;52.030;113.524;2022-07-01T01:59:04;92580.41;;;29.56
69420;BMP280;56612;52.030;113.524;2022-07-01T02:02:08;92577.69;;;29.84
69420;BMP280;56612;52.030;113.524;2022-07-01T02:05:13;92573.81;;;30.17
69420;BMP280;56612;52.030;113.524;2022-07-01T02:08:17;92563.56;;;30.16
69420;BMP280;56612;52.030;113.524;2022-07-01T02:11:21;92554.63;;;30.43
69420;BMP280;56612;52.030;113.524;2022-07-01T02:14:25;92547.09;;;30.95
69420;BMP280;56612;52.030;113.524;2022-07-01T02:17:28;92545.06;;;32.29
69420;BMP280;56612;52.030;113.524;2022-07-01T02:20:31;92532.50;;;33.25
69420;BMP280;56612;52.030;113.524;2022-07-01T02:23:35;92524.50;;;33.90
69420;BMP280;56612;52.030;113.524;2022-07-01T02:26:39;92529.59;;;34.40
69420;BMP280;56612;52.030;113.524;2022-07-01T02:29:43;92510.81;;;34.83
69420;BMP280;56612;52.030;113.524;2022-07-01T02:32:47;92508.13;;;35.18
69420;BMP280;56612;52.030;113.524;2022-07-01T02:35:50;92497.28;;;35.64
69420;BMP280;56612;52.030;113.524;2022-07-01T02:38:54;92503.75;;;36.17
69420;BMP280;56612;52.030;113.524;2022-07-01T02:41:58;92505.97;;;36.50
69420;BMP280;56612;52.030;113.524;2022-07-01T02:45:19;92510.94;;;36.69
69420;BMP280;56612;52.030;113.524;2022-07-01T02:48:24;92504.09;;;36.94
69420;BMP280;56612;52.030;113.524;2022-07-01T02:51:27;92509.00;;;36.67
69420;BMP280;56612;52.030;113.524;2022-07-01T02:54:30;92502.59;;;36.88
69420;BMP280;56612;52.030;113.524;2022-07-01T02:57:35;92501.19;;;37.79
69420;BMP280;56612;52.030;113.524;2022-07-01T03:00:38;92493.41;;;38.37
69420;BMP280;56612;52.030;113.524;2022-07-01T03:03:42;92491.34;;;39.10
69420;BMP280;56612;52.030;113.524;2022-07-01T03:06:46;92496.31;;;39.51
69420;BMP280;56612;52.030;113.524;2022-07-01T03:09:49;92495.47;;;39.88
69420;BMP280;56612;52.030;113.524;2022-07-01T03:12:53;92493.13;;;40.37
69420;BMP280;56612;52.030;113.524;2022-07-01T03:15:58;92488.00;;;40.62
69420;BMP280;56612;52.030;113.524;2022-07-01T03:19:01;92484.53;;;40.90
69420;BMP280;56612;52.030;113.524;2022-07-01T03:22:06;92487.66;;;41.32
69420;BMP280;56612;52.030;113.524;2022-07-01T03:25:09;92482.06;;;41.54
69420;BMP280;56612;52.030;113.524;2022-07-01T03:28:12;92481.16;;;41.89
69420;BMP280;56612;52.030;113.524;2022-07-01T03:31:17;92484.44;;;42.07
69420;BMP280;56612;52.030;113.524;2022-07-01T03:34:20;92467.88;;;40.66
69420;BMP280;56612;52.030;113.524;2022-07-01T03:37:24;92475.88;;;41.03
69420;BMP280;56612;52.030;113.524;2022-07-01T03:40:27;92465.50;;;41.52
69420;BMP280;56612;52.030;113.524;2022-07-01T03:43:30;92469.03;;;41.80
69420;BMP280;56612;52.030;113.524;2022-07-01T03:46:35;92461.31;;;42.18
69420;BMP280;56612;52.030;113.524;2022-07-01T03:49:38;92459.66;;;42.52
69420;BMP280;56612;52.030;113.524;2022-07-01T03:52:42;92459.56;;;42.36
69420;BMP280;56612;52.030;113.524;2022-07-01T03:55:45;92463.28;;;41.86
69420;BMP280;56612;52.030;113.524;2022-07-01T03:58:50;92458.72;;;41.56
69420;BMP280;56612;52.030;113.524;2022-07-01T04:01:54;92463.69;;;41.11
69420;BMP280;56612;52.030;113.524;2022-07-01T04:04:58;92458.81;;;40.65
69420;BMP280;56612;52.030;113.524;2022-07-01T04:08:03;92450.00;;;38.93
69420;BMP280;56612;52.030;113.524;2022-07-01T04:11:08;92458.84;;;38.89
69420;BMP280;56612;52.030;113.524;2022-07-01T04:14:12;92461.47;;;39.08
69420;BMP280;56612;52.030;113.524;2022-07-01T04:17:15;92454.38;;;39.09
69420;BMP280;56612;52.030;113.524;2022-07-01T04:20:20;92444.25;;;38.88
69420;BMP280;56612;52.030;113.524;2022-07-01T04:23:23;92444.78;;;38.47
69420;BMP280;56612;52.030;113.524;2022-07-01T04:26:26;92438.56;;;37.72
69420;BMP280;56612;52.030;113.524;2022-07-01T04:29:40;92436.50;;;37.96
69420;BMP280;56612;52.030;113.524;2022-07-01T04:32:43;92427.00;;;38.68
69420;BMP280;56612;52.030;113.524;2022-07-01T04:35:46;92419.88;;;39.17
69420;BMP280;56612;52.030;113.524;2022-07-01T04:38:50;92418.78;;;39.39
69420;BMP280;56612;52.030;113.524;2022-07-01T04:41:53;92411.44;;;39.24
69420;BMP280;56612;52.030;113.524;2022-07-01T04:45:03;92395.78;;;39.20
69420;BMP280;56612;52.030;113.524;2022-07-01T04:48:07;92404.78;;;39.03
69420;BMP280;56612;52.030;113.524;2022-07-01T04:51:10;92392.59;;;38.69
69420;BMP280;56612;52.030;113.524;2022-07-01T04:54:13;92388.25;;;37.91
69420;BMP280;56612;52.030;113.524;2022-07-01T04:57:17;92388.75;;;37.81
69420;BMP280;56612;52.030;113.524;2022-07-01T05:00:20;92379.78;;;38.35
69420;BMP280;56612;52.030;113.524;2022-07-01T05:03:23;92381.75;;;38.61
69420;BMP280;56612;52.030;113.524;2022-07-01T05:06:28;92379.28;;;37.84
69420;BMP280;56612;52.030;113.524;2022-07-01T05:09:31;92381.41;;;37.33
69420;BMP280;56612;52.030;113.524;2022-07-01T05:12:35;92368.19;;;38.39
69420;BMP280;56612;52.030;113.524;2022-07-01T05:15:39;92372.97;;;37.60
69420;BMP280;56612;52.030;113.524;2022-07-01T05:18:42;92368.25;;;36.62
69420;BMP280;56612;52.030;113.524;2022-07-01T05:22:05;92376.00;;;36.35
69420;BMP280;56612;52.030;113.524;2022-07-01T05:25:08;92367.84;;;36.07
69420;BMP280;56612;52.030;113.524;2022-07-01T05:28:12;92368.66;;;35.92
69420;BMP280;56612;52.030;113.524;2022-07-01T05:31:16;92373.13;;;35.89
69420;BMP280;56612;52.030;113.524;2022-07-01T05:34:19;92363.16;;;36.25
69420;BMP280;56612;52.030;113.524;2022-07-01T05:37:23;92361.84;;;36.30
69420;BMP280;56612;52.030;113.524;2022-07-01T05:40:26;92358.19;;;37.54
69420;BMP280;56612;52.030;113.524;2022-07-01T05:43:29;92346.88;;;36.67
69420;BMP280;56612;52.030;113.524;2022-07-01T05:46:33;92346.25;;;36.53
69420;BMP280;56612;52.030;113.524;2022-07-01T05:49:36;92334.97;;;37.69
69420;BMP280;56612;52.030;113.524;2022-07-01T05:52:40;92328.22;;;37.42
69420;BMP280;56612;52.030;113.524;2022-07-01T05:55:45;92332.28;;;36.01
69420;BMP280;56612;52.030;113.524;2022-07-01T05:58:49;92347.03;;;35.25
69420;BMP280;56612;52.030;113.524;2022-07-01T06:01:52;92333.97;;;34.82
69420;BMP280;56612;52.030;113.524;2022-07-01T06:04:56;92328.94;;;34.63
69420;BMP280;56612;52.030;113.524;2022-07-01T06:08:03;92345.81;;;34.39
69420;BMP280;56612;52.030;113.524;2022-07-01T06:11:07;92342.88;;;33.76
69420;BMP280;56612;52.030;113.524;2022-07-01T06:14:11;92331.25;;;33.00
69420;BMP280;56612;52.030;113.524;2022-07-01T06:17:15;92342.06;;;31.46
69420;BMP280;56612;52.030;113.524;2022-07-01T06:20:19;92347.66;;;30.45
69420;BMP280;56612;52.030;113.524;2022-07-01T06:23:23;92335.75;;;29.87
69420;BMP280;56612;52.030;113.524;2022-07-01T06:26:26;92324.53;;;29.80
69420;BMP280;56612;52.030;113.524;2022-07-01T06:29:30;92308.69;;;29.72
69420;BMP280;56612;52.030;113.524;2022-07-01T06:32:34;92303.78;;;29.72
69420;BMP280;56612;52.030;113.524;2022-07-01T06:35:38;92302.53;;;29.89
69420;BMP280;56612;52.030;113.524;2022-07-01T06:38:42;92292.84;;;30.15
69420;BMP280;56612;52.030;113.524;2022-07-01T06:41:46;92306.94;;;30.37
69420;BMP280;56612;52.030;113.524;2022-07-01T06:44:49;92292.50;;;30.37
69420;BMP280;56612;52.030;113.524;2022-07-01T06:47:53;92291.19;;;30.36
69420;BMP280;56612;52.030;113.524;2022-07-01T06:50:56;92290.56;;;30.44
69420;BMP280;56612;52.030;113.524;2022-07-01T06:54:00;92292.78;;;31.16
69420;BMP280;56612;52.030;113.524;2022-07-01T06:57:08;92289.34;;;33.19
69420;BMP280;56612;52.030;113.524;2022-07-01T07:00:12;92280.31;;;35.12
69420;BMP280;56612;52.030;113.524;2022-07-01T07:03:16;92278.94;;;33.78
69420;BMP280;56612;52.030;113.524;2022-07-01T07:06:21;92283.78;;;33.34
69420;BMP280;56612;52.030;113.524;2022-07-01T07:09:24;92285.47;;;33.16
69420;BMP280;56612;52.030;113.524;2022-07-01T07:12:27;92292.00;;;33.86
69420;BMP280;56612;52.030;113.524;2022-07-01T07:15:32;92271.69;;;34.59
69420;BMP280;56612;52.030;113.524;2022-07-01T07:18:35;92271.34;;;34.76
69420;BMP280;56612;52.030;113.524;2022-07-01T07:21:38;92267.97;;;34.82
69420;BMP280;56612;52.030;113.524;2022-07-01T07:24:41;92254.19;;;34.26
69420;BMP280;56612;52.030;113.524;2022-07-01T07:27:45;92245.25;;;33.82
69420;BMP280;56612;52.030;113.524;2022-07-01T07:30:49;92232.97;;;33.44
69420;BMP280;56612;52.030;113.524;2022-07-01T07:33:52;92238.34;;;33.31
69420;BMP280;56612;52.030;113.524;2022-07-01T07:36:56;92239.78;;;33.23
69420;BMP280;56612;52.030;113.524;2022-07-01T07:40:01;92277.47;;;33.05
69420;BMP280;56612;52.030;113.524;2022-07-01T07:43:06;92351.53;;;30.74
69420;BMP280;56612;52.030;113.524;2022-07-01T07:46:10;92385.63;;;26.05
69420;BMP280;56612;52.030;113.524;2022-07-01T07:49:13;92396.59;;;23.33
69420;BMP280;56612;52.030;113.524;2022-07-01T07:52:16;92359.56;;;22.39
69420;BMP280;56612;52.030;113.524;2022-07-01T07:55:20;92354.03;;;22.27
69420;BMP280;56612;52.030;113.524;2022-07-01T07:58:26;92356.16;;;22.39
69420;BMP280;56612;52.030;113.524;2022-07-01T08:01:29;92349.25;;;22.27
69420;BMP280;56612;52.030;113.524;2022-07-01T08:04:32;92351.69;;;22.19
69420;BMP280;56612;52.030;113.524;2022-07-01T08:07:40;92340.31;;;22.14
69420;BMP280;56612;52.030;113.524;2022-07-01T08:10:43;92340.78;;;22.19
69420;BMP280;56612;52.030;113.524;2022-07-01T08:13:48;92335.25;;;22.06
69420;BMP280;56612;52.030;113.524;2022-07-01T08:16:51;92327.56;;;22.25
69420;BMP280;56612;52.030;113.524;2022-07-01T08:19:56;92319.94;;;22.28
69420;BMP280;56612;52.030;113.524;2022-07-01T08:22:59;92316.91;;;22.63
69420;BMP280;56612;52.030;113.524;2022-07-01T08:26:02;92314.44;;;22.87
69420;BMP280;56612;52.030;113.524;2022-07-01T08:29:07;92302.88;;;23.13
69420;BMP280;56612;52.030;113.524;2022-07-01T08:32:10;92289.47;;;23.49
69420;BMP280;56612;52.030;113.524;2022-07-01T08:35:13;92290.13;;;23.75
69420;BMP280;56612;52.030;113.524;2022-07-01T08:38:18;92295.72;;;23.86
69420;BMP280;56612;52.030;113.524;2022-07-01T08:41:24;92287.84;;;23.92
69420;BMP280;56612;52.030;113.524;2022-07-01T08:44:31;92290.78;;;23.76
69420;BMP280;56612;52.030;113.524;2022-07-01T08:47:34;92287.16;;;23.54
69420;BMP280;56612;52.030;113.524;2022-07-01T08:50:39;92287.47;;;23.48
69420;BMP280;56612;52.030;113.524;2022-07-01T08:54:02;92289.91;;;23.54
69420;BMP280;56612;52.030;113.524;2022-07-01T08:58:34;92287.94;;;23.78
69420;BMP280;56612;52.030;113.524;2022-07-01T09:02:58;92278.78;;;24.09
69420;BMP280;56612;52.030;113.524;2022-07-01T09:07:43;92274.38;;;24.39
69420;BMP280;56612;52.030;113.524;2022-07-01T09:12:14;92275.94;;;24.59
69420;BMP280;56612;52.030;113.524;2022-07-01T09:17:04;92296.19;;;24.64
69420;BMP280;56612;52.030;113.524;2022-07-01T09:21:56;92299.19;;;24.71
69420;BMP280;56612;52.030;113.524;2022-07-01T09:26:18;92309.69;;;24.79
69420;BMP280;56612;52.030;113.524;2022-07-01T09:30:40;92320.22;;;24.98
69420;BMP280;56612;52.030;113.524;2022-07-01T09:39:47;92378.34;;;24.73
69420;BMP280;56612;52.030;113.524;2022-07-01T09:44:32;92425.34;;;24.63
69420;BMP280;56612;52.030;113.524;2022-07-01T09:52:59;92436.16;;;24.39
69420;BMP280;56612;52.030;113.524;2022-07-01T09:57:49;92416.28;;;24.16
69420;BMP280;56612;52.030;113.524;2022-07-01T10:02:36;92383.81;;;23.97
69420;BMP280;56612;52.030;113.524;2022-07-01T10:07:10;92374.84;;;23.73
69420;BMP280;56612;52.030;113.524;2022-07-01T10:20:23;92348.09;;;23.36
69420;BMP280;56612;52.030;113.524;2022-07-01T10:24:51;92345.19;;;23.40
69420;BMP280;56612;52.030;113.524;2022-07-01T10:29:26;92343.53;;;23.45
69420;BMP280;56612;52.030;113.524;2022-07-01T10:34:00;92352.09;;;23.51
69420;BMP280;56612;52.030;113.524;2022-07-01T10:38:22;92293.91;;;23.15
69420;BMP280;56612;52.030;113.524;2022-07-01T10:42:58;92308.81;;;23.18
69420;BMP280;56612;52.030;113.524;2022-07-01T10:47:43;92289.47;;;23.22
69420;BMP280;56612;52.030;113.524;2022-07-01T10:52:11;92273.38;;;23.18
69420;BMP280;56612;52.030;113.524;2022-07-01T10:57:03;92270.28;;;23.51
69420;BMP280;56612;52.030;113.524;2022-07-01T11:01:20;92299.75;;;23.61
69420;BMP280;56612;52.030;113.524;2022-07-01T11:05:41;92306.66;;;23.06
69420;BMP280;56612;52.030;113.524;2022-07-01T11:10:26;92312.25;;;22.89
69420;BMP280;56612;52.030;113.524;2022-07-01T11:15:11;92316.84;;;22.93
69420;BMP280;56612;52.030;113.524;2022-07-01T11:19:49;92320.69;;;22.98
69420;BMP280;56612;52.030;113.524;2022-07-01T11:24:35;92327.13;;;23.05
69420;BMP280;56612;52.030;113.524;2022-07-01T11:29:24;92317.16;;;22.87
69420;BMP280;56612;52.030;113.524;2022-07-01T11:34:09;92318.69;;;22.69
69420;BMP280;56612;52.030;113.524;2022-07-01T11:38:58;92319.91;;;22.72
69420;BMP280;56612;52.030;113.524;2022-07-01T12:51:52;92365.66;;;23.11
69420;BMP280;56612;52.030;113.524;2022-07-01T12:54:56;92363.03;;;23.09
69420;BMP280;56612;52.030;113.524;2022-07-01T12:58:02;92375.34;;;23.08
69420;BMP280;56612;52.030;113.524;2022-07-01T13:01:06;92375.16;;;23.12
69420;BMP280;56612;52.030;113.524;2022-07-01T13:04:11;92381.34;;;23.11
69420;BMP280;56612;52.030;113.524;2022-07-01T13:07:15;92387.31;;;23.01
69420;BMP280;56612;52.030;113.524;2022-07-01T13:10:19;92399.34;;;22.91
69420;BMP280;56612;52.030;113.524;2022-07-01T13:13:24;92410.63;;;22.54
69420;BMP280;56612;52.030;113.524;2022-07-01T13:16:27;92409.03;;;22.44
69420;BMP280;56612;52.030;113.524;2022-07-01T13:19:30;92411.75;;;22.44
69420;BMP280;56612;52.030;113.524;2022-07-01T13:22:36;92412.41;;;22.45
69420;BMP280;56612;52.030;113.524;2022-07-01T13:25:39;92404.41;;;22.55
69420;BMP280;56612;52.030;113.524;2022-07-01T13:28:43;92403.41;;;22.63
69420;BMP280;56612;52.030;113.524;2022-07-01T13:31:46;92410.75;;;22.66
69420;BMP280;56612;52.030;113.524;2022-07-01T13:34:50;92417.66;;;22.63
69420;BMP280;56612;52.030;113.524;2022-07-01T13:37:54;92423.97;;;22.60
69420;BMP280;56612;52.030;113.524;2022-07-01T13:40:57;92410.91;;;22.62
69420;BMP280;56612;52.030;113.524;2022-07-01T13:44:00;92411.03;;;22.60
69420;BMP280;56612;52.030;113.524;2022-07-01T13:47:04;92411.03;;;22.60
69420;BMP280;56612;52.030;113.524;2022-07-01T13:50:12;92402.94;;;22.58
69420;BMP280;56612;52.030;113.524;2022-07-01T13:53:16;92393.28;;;22.61
69420;BMP280;56612;52.030;113.524;2022-07-01T13:56:21;92395.81;;;22.65
69420;BMP280;56612;52.030;113.524;2022-07-01T13:59:26;92397.13;;;22.66
69420;BMP280;56612;52.030;113.524;2022-07-01T14:02:29;92386.88;;;22.67
69420;BMP280;56612;52.030;113.524;2022-07-01T14:05:33;92378.13;;;22.64
69420;BMP280;56612;52.030;113.524;2022-07-01T14:08:36;92377.03;;;22.59
69420;BMP280;56612;52.030;113.524;2022-07-01T14:11:40;92368.19;;;22.59
69420;BMP280;56612;52.030;113.524;2022-07-01T14:14:43;92371.94;;;22.51
69420;BMP280;56612;52.030;113.524;2022-07-01T14:17:48;92360.00;;;22.44
69420;BMP280;56612;52.030;113.524;2022-07-01T14:20:51;92364.44;;;22.37
69420;BMP280;56612;52.030;113.524;2022-07-01T14:23:54;92361.06;;;22.36
69420;BMP280;56612;52.030;113.524;2022-07-01T14:26:58;92368.09;;;22.31
69420;BMP280;56612;52.030;113.524;2022-07-01T14:30:02;92358.81;;;22.26
69420;BMP280;56612;52.030;113.524;2022-07-01T14:33:07;92350.81;;;22.22
69420;BMP280;56612;52.030;113.524;2022-07-01T14:36:10;92358.41;;;22.20
69420;BMP280;56612;52.030;113.524;2022-07-01T14:39:13;92370.81;;;22.17
69420;BMP280;56612;52.030;113.524;2022-07-01T14:42:18;92366.84;;;22.14
69420;BMP280;56612;52.030;113.524;2022-07-01T14:45:21;92362.25;;;22.10
69420;BMP280;56612;52.030;113.524;2022-07-01T14:48:24;92365.91;;;22.05
69420;BMP280;56612;52.030;113.524;2022-07-01T14:51:28;92371.63;;;21.98
69420;BMP280;56612;52.030;113.524;2022-07-01T14:54:31;92376.41;;;21.83
69420;BMP280;56612;52.030;113.524;2022-07-01T14:57:36;92382.53;;;21.67
69420;BMP280;56612;52.030;113.524;2022-07-01T15:00:39;92384.81;;;21.61
69420;BMP280;56612;52.030;113.524;2022-07-01T15:03:42;92380.47;;;21.68
69420;BMP280;56612;52.030;113.524;2022-07-01T15:06:46;92385.06;;;21.71
69420;BMP280;56612;52.030;113.524;2022-07-01T15:09:51;92371.38;;;21.73
69420;BMP280;56612;52.030;113.524;2022-07-01T15:12:54;92369.78;;;21.78
69420;BMP280;56612;52.030;113.524;2022-07-01T15:16:00;92377.59;;;21.86
69420;BMP280;56612;52.030;113.524;2022-07-01T15:19:04;92373.06;;;21.81
69420;BMP280;56612;52.030;113.524;2022-07-01T15:22:08;92373.06;;;21.81
69420;BMP280;56612;52.030;113.524;2022-07-01T15:25:13;92378.47;;;21.83
69420;BMP280;56612;52.030;113.524;2022-07-01T15:28:17;92380.13;;;21.90
69420;BMP280;56612;52.030;113.524;2022-07-01T15:31:20;92391.69;;;21.91
69420;BMP280;56612;52.030;113.524;2022-07-01T15:34:44;92391.75;;;21.89
69420;BMP280;56612;52.030;113.524;2022-07-01T15:37:49;92383.53;;;21.91
69420;BMP280;56612;52.030;113.524;2022-07-01T15:40:53;92388.19;;;21.92
69420;BMP280;56612;52.030;113.524;2022-07-01T15:43:57;92384.91;;;21.90
69420;BMP280;56612;52.030;113.524;2022-07-01T15:47:01;92385.28;;;21.82
69420;BMP280;56612;52.030;113.524;2022-07-01T15:50:22;92387.50;;;21.77
69420;BMP280;56612;52.030;113.524;2022-07-01T15:53:27;92388.34;;;21.74
69420;BMP280;56612;52.030;113.524;2022-07-01T15:56:30;92381.03;;;21.70
69420;BMP280;56612;52.030;113.524;2022-07-01T15:59:34;92394.63;;;21.70
69420;BMP280;56612;52.030;113.524;2022-07-01T16:02:38;92384.41;;;21.71
69420;BMP280;56612;52.030;113.524;2022-07-01T16:05:47;92392.94;;;21.77
69420;BMP280;56612;52.030;113.524;2022-07-01T16:08:56;92390.91;;;21.78
69420;BMP280;56612;52.030;113.524;2022-07-01T16:12:03;92395.13;;;21.75
69420;BMP280;56612;52.030;113.524;2022-07-01T16:15:06;92398.72;;;21.69
69420;BMP280;56612;52.030;113.524;2022-07-01T16:18:12;92390.69;;;21.67
69420;BMP280;56612;52.030;113.524;2022-07-01T16:21:17;92397.63;;;21.64
69420;BMP280;56612;52.030;113.524;2022-07-01T16:24:21;92401.63;;;21.65
69420;BMP280;56612;52.030;113.524;2022-07-01T16:27:24;92395.56;;;21.65
69420;BMP280;56612;52.030;113.524;2022-07-01T16:30:28;92399.03;;;21.63
69420;BMP280;56612;52.030;113.524;2022-07-01T16:33:31;92397.19;;;21.57
69420;BMP280;56612;52.030;113.524;2022-07-01T16:36:37;92403.13;;;21.62
69420;BMP280;56612;52.030;113.524;2022-07-01T16:39:46;92399.84;;;21.60
69420;BMP280;56612;52.030;113.524;2022-07-01T16:42:56;92399.34;;;21.55
69420;BMP280;56612;52.030;113.524;2022-07-01T16:46:00;92393.72;;;21.59
69420;BMP280;56612;52.030;113.524;2022-07-01T16:49:11;92394.66;;;21.53
69420;BMP280;56612;52.030;113.524;2022-07-01T16:52:16;92394.47;;;21.41
69420;BMP280;56612;52.030;113.524;2022-07-01T16:55:29;92402.75;;;21.39
69420;BMP280;56612;52.030;113.524;2022-07-01T16:58:36;92405.53;;;21.37
69420;BMP280;56612;52.030;113.524;2022-07-01T17:01:44;92404.22;;;21.19
69420;BMP280;56612;52.030;113.524;2022-07-01T17:04:49;92410.22;;;21.05
69420;BMP280;56612;52.030;113.524;2022-07-01T17:07:54;92416.50;;;21.01
69420;BMP280;56612;52.030;113.524;2022-07-01T17:10:59;92411.94;;;20.96
69420;BMP280;56612;52.030;113.524;2022-07-01T17:14:04;92411.38;;;20.93
69420;BMP280;56612;52.030;113.524;2022-07-01T17:17:08;92410.47;;;20.99
69420;BMP280;56612;52.030;113.524;2022-07-01T17:20:12;92409.09;;;21.00
69420;BMP280;56612;52.030;113.524;2022-07-01T17:23:24;92411.78;;;21.00
69420;BMP280;56612;52.030;113.524;2022-07-01T17:26:34;92408.66;;;20.93
69420;BMP280;56612;52.030;113.524;2022-07-01T17:29:57;92401.34;;;20.90
69420;BMP280;56612;52.030;113.524;2022-07-01T17:33:05;92399.44;;;20.86
69420;BMP280;56612;52.030;113.524;2022-07-01T17:36:19;92395.22;;;20.89
69420;BMP280;56612;52.030;113.524;2022-07-01T17:39:29;92393.84;;;20.90
69420;BMP280;56612;52.030;113.524;2022-07-01T17:42:32;92383.03;;;20.88
69420;BMP280;56612;52.030;113.524;2022-07-01T17:45:36;92401.25;;;20.92
69420;BMP280;56612;52.030;113.524;2022-07-01T17:48:41;92397.81;;;20.93
69420;BMP280;56612;52.030;113.524;2022-07-01T17:51:45;92392.34;;;20.76
69420;BMP280;56612;52.030;113.524;2022-07-01T17:54:49;92390.03;;;20.66
69420;BMP280;56612;52.030;113.524;2022-07-01T17:57:55;92385.72;;;20.55
69420;BMP280;56612;52.030;113.524;2022-07-01T18:01:03;92385.50;;;20.42
69420;BMP280;56612;52.030;113.524;2022-07-01T18:04:07;92398.88;;;20.29
69420;BMP280;56612;52.030;113.524;2022-07-01T18:07:11;92393.31;;;20.15
69420;BMP280;56612;52.030;113.524;2022-07-01T18:10:17;92391.94;;;20.16
69420;BMP280;56612;52.030;113.524;2022-07-01T18:13:29;92383.13;;;20.15
69420;BMP280;56612;52.030;113.524;2022-07-01T18:23:34;92379.91;;;20.11
69420;BMP280;56612;52.030;113.524;2022-07-01T18:26:46;92378.22;;;20.01
69420;BMP280;56612;52.030;113.524;2022-07-01T18:29:55;92384.47;;;19.97
69420;BMP280;56612;52.030;113.524;2022-07-01T18:33:03;92379.41;;;19.87
69420;BMP280;56612;52.030;113.524;2022-07-01T18:36:08;92377.41;;;19.86
69420;BMP280;56612;52.030;113.524;2022-07-01T18:39:14;92381.50;;;19.85
69420;BMP280;56612;52.030;113.524;2022-07-01T18:42:20;92370.66;;;19.85
69420;BMP280;56612;52.030;113.524;2022-07-01T18:45:24;92370.06;;;19.82
69420;BMP280;56612;52.030;113.524;2022-07-01T18:48:28;92382.97;;;19.82
69420;BMP280;56612;52.030;113.524;2022-07-01T18:51:33;92377.63;;;19.80
69420;BMP280;56612;52.030;113.524;2022-07-01T18:54:38;92382.44;;;19.77
69420;BMP280;56612;52.030;113.524;2022-07-01T18:57:44;92385.81;;;19.78
69420;BMP280;56612;52.030;113.524;2022-07-01T19:00:47;92381.56;;;19.83
69420;BMP280;56612;52.030;113.524;2022-07-01T19:03:51;92386.03;;;19.90
69420;BMP280;56612;52.030;113.524;2022-07-01T19:06:54;92392.22;;;19.89
69420;BMP280;56612;52.030;113.524;2022-07-01T19:09:58;92391.56;;;19.88
69420;BMP280;56612;52.030;113.524;2022-07-01T19:13:02;92388.25;;;19.86
69420;BMP280;56612;52.030;113.524;2022-07-01T19:16:05;92392.94;;;19.87
69420;BMP280;56612;52.030;113.524;2022-07-01T19:19:09;92383.56;;;19.84
69420;BMP280;56612;52.030;113.524;2022-07-01T19:22:12;92387.59;;;19.85
69420;BMP280;56612;52.030;113.524;2022-07-01T19:25:15;92395.13;;;19.83
69420;BMP280;56612;52.030;113.524;2022-07-01T19:28:19;92394.47;;;19.82
69420;BMP280;56612;52.030;113.524;2022-07-01T19:31:24;92394.06;;;19.76
69420;BMP280;56612;52.030;113.524;2022-07-01T19:34:27;92384.66;;;19.73
69420;BMP280;56612;52.030;113.524;2022-07-01T19:37:30;92379.09;;;19.77